Fairplay, Kentucky
Current Conditions -  °F | °C
As of 3:56 PM on Monday 20 Oct 2014 (Local Time) from KEKQ Reporting Station
Few Clouds Few Clouds  
Wind Chill: 65°   Ceiling: Unl
Heat Index: 65°   Visibility: 10mi
Dew Point: 48°   Wind: 12mph
Humidity: 54%   Direction: 230°SW
Pressure: 29.99"   Gusts: 20mph
Location:  37.05°N, 85.3°W
Report Text: KEKQ 202056Z AUTO 23010G17KT 10SM FEW100 18/09 A2999 RMK AO2 58007 T01830088 SLP160
Loading
Personal Weather Stations






























Interactive Weather Map
Tropical Storm Tracking
New forecast layout! Learn more

10-Day Weather Forecast

Advertisements
Track Severe Weather on mobile